createdAt,value
2023-04-02T00:00:29.762Z,100940.16
2023-04-02T00:03:03.684Z,100951.31
2023-04-02T00:05:51.372Z,100954.53
2023-04-02T00:08:25.823Z,100963.53
2023-04-02T00:10:57.453Z,100960.75
2023-04-02T00:13:30.097Z,100975.75
2023-04-02T00:15:58.205Z,100978.88
2023-04-02T00:18:26.166Z,100982.69
2023-04-02T00:21:21.136Z,100991.97
2023-04-02T00:23:47.879Z,100996.97
2023-04-02T00:26:29.541Z,101004.47
2023-04-02T00:28:56.179Z,101002.69
2023-04-02T00:31:23.611Z,101004.31
2023-04-02T00:33:50.896Z,101010.94
2023-04-02T00:36:20.189Z,101018.28
2023-04-02T00:38:48.823Z,101016.56
2023-04-02T00:41:27.026Z,101019.91
2023-04-02T00:43:54.599Z,101024.63
2023-04-02T00:46:27.506Z,101026.25
2023-04-02T00:48:59.780Z,101035.38
2023-04-02T00:51:38.526Z,101040.38
2023-04-02T00:54:09.906Z,101036.25
2023-04-02T00:56:44.519Z,101035.38
2023-04-02T00:59:33.546Z,101042.72
2023-04-02T01:02:31.057Z,101049.34
2023-04-02T01:05:04.421Z,101049.59
2023-04-02T01:07:51.166Z,101048.88
2023-04-02T01:10:42.849Z,101060.63
2023-04-02T01:13:39.500Z,101066.53
2023-04-02T01:16:33.069Z,101052.53
2023-04-02T01:19:32.008Z,101075.19
2023-04-02T01:22:36.173Z,101069.31
2023-04-02T01:25:06.390Z,101080.03
2023-04-02T01:27:42.259Z,101076.53
2023-04-02T01:30:11.880Z,101076.66
2023-04-02T01:32:40.964Z,101083.44
2023-04-02T01:35:09.124Z,101090.03
2023-04-02T01:38:11.782Z,101099.91
2023-04-02T01:40:46.512Z,101094.03
2023-04-02T01:43:29.960Z,101102.41
2023-04-02T01:46:04.913Z,101107.66
2023-04-02T01:48:31.983Z,101108.28
2023-04-02T01:51:00.828Z,101109.28
2023-04-02T01:53:30.812Z,101117.66
2023-04-02T01:56:00.610Z,101121.03
2023-04-02T01:58:32.500Z,101121.78
2023-04-02T02:01:09.291Z,101123.53
2023-04-02T02:03:44.218Z,101132.66
2023-04-02T02:06:14.129Z,101134.28
2023-04-02T02:08:49.953Z,101136.78
2023-04-02T02:11:21.460Z,101136.78
2023-04-02T02:13:55.421Z,101140.91
2023-04-02T02:16:22.987Z,101149.00
2023-04-02T02:18:52.777Z,101152.22
2023-04-02T02:21:47.964Z,101152.97
2023-04-02T02:24:20.747Z,101162.06
2023-04-02T02:26:50.397Z,101157.97
2023-04-02T02:29:20.277Z,101167.06
2023-04-02T02:31:52.437Z,101172.66
2023-04-02T02:34:24.781Z,101170.91
2023-04-02T02:36:56.778Z,101177.53
2023-04-02T02:39:43.605Z,101182.38
2023-04-02T02:42:14.416Z,101190.59
2023-04-02T02:44:46.787Z,101191.50
2023-04-02T02:47:22.842Z,101201.34
2023-04-02T02:49:54.101Z,101200.59
2023-04-02T02:52:25.625Z,101208.09
2023-04-02T02:54:57.244Z,101200.59
2023-04-02T02:57:31.521Z,101213.84
2023-04-02T03:00:01.469Z,101226.78
2023-04-02T03:02:29.154Z,101225.16
2023-04-02T03:04:56.428Z,101222.38
2023-04-02T03:07:27.240Z,101231.78
2023-04-02T03:10:12.482Z,101237.66
2023-04-02T03:13:02.223Z,101241.78
2023-04-02T03:15:35.593Z,101255.72
2023-04-02T03:18:08.421Z,101263.81
2023-04-02T03:20:41.137Z,101251.50
2023-04-02T03:23:29.790Z,101269.09
2023-04-02T03:26:06.015Z,101268.06
2023-04-02T03:28:37.775Z,101266.59
2023-04-02T03:31:16.741Z,101285.00
2023-04-02T03:33:48.617Z,101292.34
2023-04-02T03:36:30.372Z,101288.53
2023-04-02T03:39:10.170Z,101293.66
2023-04-02T03:41:52.558Z,101296.47
2023-04-02T03:44:37.525Z,101304.09
2023-04-02T03:47:18.079Z,101308.22
2023-04-02T03:49:57.628Z,101311.47
2023-04-02T03:52:29.235Z,101311.47
2023-04-02T03:54:59.159Z,101318.22
2023-04-02T03:57:38.187Z,101317.47
2023-04-02T04:00:16.346Z,101324.09
2023-04-02T04:02:47.462Z,101330.44
2023-04-02T04:05:28.718Z,101326.47
2023-04-02T04:08:01.361Z,101345.72
2023-04-02T04:10:29.166Z,101339.25
2023-04-02T04:13:03.736Z,101346.91
2023-04-02T04:15:40.458Z,101352.19
2023-04-02T04:18:19.944Z,101357.47
2023-04-02T04:21:01.084Z,101355.72
2023-04-02T04:23:35.728Z,101366.75
2023-04-02T04:26:19.706Z,101376.00
2023-04-02T04:29:14.779Z,101379.69
2023-04-02T04:31:55.652Z,101381.31
2023-04-02T04:34:32.156Z,101384.25
2023-04-02T04:37:01.750Z,101398.50
2023-04-02T04:39:45.881Z,101396.88
2023-04-02T04:42:22.786Z,101402.63
2023-04-02T04:44:58.695Z,101405.41
2023-04-02T04:47:38.835Z,101402.91
2023-04-02T04:50:30.679Z,101417.63
2023-04-02T04:52:57.168Z,101421.88
2023-04-02T04:55:39.826Z,101426.28
2023-04-02T04:58:19.270Z,101428.97
2023-04-02T05:01:12.222Z,101433.38
2023-04-02T05:04:05.301Z,101433.38
2023-04-02T05:06:53.349Z,101446.75
2023-04-02T05:09:27.488Z,101452.66
2023-04-02T05:12:31.689Z,101462.78
2023-04-02T05:15:08.437Z,101464.72
2023-04-02T05:17:42.334Z,101464.84
2023-04-02T05:20:21.264Z,101469.13
2023-04-02T05:22:58.465Z,101473.97
2023-04-02T05:25:27.364Z,101481.31
2023-04-02T05:28:06.142Z,101489.59
2023-04-02T05:30:41.340Z,101482.97
2023-04-02T05:33:21.135Z,101486.34
2023-04-02T05:35:53.334Z,101494.28
2023-04-02T05:38:22.745Z,101500.16
2023-04-02T05:40:58.467Z,101502.66
2023-04-02T05:43:27.765Z,101507.84
2023-04-02T05:45:59.282Z,101510.66
2023-04-02T05:48:39.642Z,101515.19
2023-04-02T05:51:14.197Z,101506.97
2023-04-02T05:53:47.081Z,101514.03
2023-04-02T05:56:28.751Z,101524.31
2023-04-02T05:59:08.324Z,101528.75
2023-04-02T06:01:47.184Z,101527.44
2023-04-02T06:04:29.863Z,101532.72
2023-04-02T06:07:07.983Z,101533.75
2023-04-02T06:09:50.930Z,101533.03
2023-04-02T06:12:36.324Z,101541.84
2023-04-02T06:15:03.004Z,101548.78
2023-04-02T06:17:29.779Z,101555.69
2023-04-02T06:19:58.926Z,101570.28
2023-04-02T06:22:45.424Z,101572.03
2023-04-02T06:25:22.755Z,101579.25
2023-04-02T06:27:52.475Z,101574.25
2023-04-02T06:30:25.409Z,101585.13
2023-04-02T06:32:51.934Z,101588.09
2023-04-02T06:35:18.443Z,101585.84
2023-04-02T06:37:48.888Z,101600.59
2023-04-02T06:40:39.887Z,101593.94
2023-04-02T06:43:16.346Z,101602.94
2023-04-02T06:45:46.288Z,101613.66
2023-04-02T06:48:19.122Z,101611.75
2023-04-02T06:50:58.585Z,101616.31
2023-04-02T06:53:34.091Z,101614.84
2023-04-02T06:56:28.724Z,101625.28
2023-04-02T06:58:55.304Z,101622.34
2023-04-02T07:01:26.604Z,101623.19
2023-04-02T07:03:53.067Z,101624.50
2023-04-02T07:06:21.247Z,101633.03
2023-04-02T07:08:48.079Z,101629.00
2023-04-02T07:11:21.113Z,101630.13
2023-04-02T07:13:49.067Z,101633.47
2023-04-02T07:16:18.504Z,101649.56
2023-04-02T07:18:45.487Z,101649.56
2023-04-02T07:21:11.962Z,101659.28
2023-04-02T07:23:38.414Z,101669.13
2023-04-02T07:26:06.621Z,101664.38
2023-04-02T07:28:33.398Z,101673.09
2023-04-02T07:31:00.195Z,101681.91
2023-04-02T07:33:30.558Z,101683.69
2023-04-02T07:35:58.025Z,101693.44
2023-04-02T07:38:24.858Z,101691.53
2023-04-02T07:40:51.611Z,101699.69
2023-04-02T07:43:18.229Z,101697.78
2023-04-02T07:45:44.770Z,101698.38
2023-04-02T07:48:13.820Z,101691.88
2023-04-02T07:50:40.845Z,101702.88
2023-04-02T07:53:08.763Z,101709.03
2023-04-02T07:55:35.718Z,101714.28
2023-04-02T07:58:02.986Z,101721.00
2023-04-02T08:00:30.006Z,101729.00
2023-04-02T08:02:56.941Z,101718.75
2023-04-02T08:05:23.982Z,101742.09
2023-04-02T08:07:55.393Z,101731.97
2023-04-02T08:10:22.647Z,101735.09
2023-04-02T08:12:49.724Z,101736.16
2023-04-02T08:15:16.904Z,101743.38
2023-04-02T08:17:44.067Z,101745.91
2023-04-02T08:20:22.450Z,101739.53
2023-04-02T08:22:49.759Z,101752.38
2023-04-02T08:25:16.654Z,101759.28
2023-04-02T08:27:43.343Z,101749.41
2023-04-02T08:30:12.762Z,101758.38
2023-04-02T08:32:42.472Z,101761.56
2023-04-02T08:35:11.112Z,101767.47
2023-04-02T08:37:37.992Z,101756.84
2023-04-02T08:40:07.190Z,101767.72
2023-04-02T08:42:50.231Z,101778.34
2023-04-02T08:45:32.304Z,101786.34
2023-04-02T08:48:01.182Z,101781.78
2023-04-02T08:50:37.182Z,101791.06
2023-04-02T08:53:09.642Z,101785.91
2023-04-02T08:55:42.791Z,101787.94
2023-04-02T08:58:39.366Z,101795.25
2023-04-02T09:01:10.775Z,101804.81
2023-04-02T09:03:41.452Z,101799.06
2023-04-02T09:06:13.792Z,101808.03
2023-04-02T09:08:44.746Z,101809.56
2023-04-02T09:11:21.553Z,101825.06
2023-04-02T09:13:54.095Z,101813.78
2023-04-02T09:16:33.852Z,101817.31
2023-04-02T09:19:00.884Z,101830.91
2023-04-02T09:21:35.134Z,101830.53
2023-04-02T09:24:03.377Z,101837.13
2023-04-02T09:26:33.326Z,101846.59
2023-04-02T09:29:19.907Z,101842.22
2023-04-02T09:31:55.220Z,101844.59
2023-04-02T09:34:30.004Z,101838.94
2023-04-02T09:36:57.171Z,101853.38
2023-04-02T09:39:28.412Z,101854.75
2023-04-02T09:42:04.951Z,101858.25
2023-04-02T09:44:32.777Z,101851.66
2023-04-02T09:47:05.530Z,101859.50
2023-04-02T09:49:37.831Z,101861.06
2023-04-02T09:52:26.780Z,101870.50
2023-04-02T09:55:21.814Z,101860.91
2023-04-02T09:57:50.424Z,101871.47
2023-04-02T10:00:31.971Z,101859.50
2023-04-02T10:03:23.044Z,101859.25
2023-04-02T10:06:14.010Z,101865.13
2023-04-02T10:08:43.543Z,101873.34
2023-04-02T10:11:14.751Z,101859.63
2023-04-02T10:14:02.552Z,101873.03
2023-04-02T10:16:35.021Z,101878.28
2023-04-02T10:19:13.251Z,101878.69
2023-04-02T10:21:43.499Z,101887.50
2023-04-02T10:24:12.598Z,101887.06
2023-04-02T10:27:31.697Z,101900.72
2023-04-02T10:30:30.521Z,101901.63
2023-04-02T10:33:20.041Z,101907.06
2023-04-02T10:36:12.152Z,101906.44
2023-04-02T10:38:44.052Z,101905.06
2023-04-02T10:41:38.010Z,101914.75
2023-04-02T10:44:24.052Z,101912.75
2023-04-02T10:47:09.173Z,101913.56
2023-04-02T10:49:47.599Z,101927.13
2023-04-02T10:52:37.133Z,101923.44
2023-04-02T10:55:22.101Z,101924.19
2023-04-02T10:57:51.171Z,101932.03
2023-04-02T11:00:25.100Z,101929.31
2023-04-02T11:03:14.709Z,101922.88
2023-04-02T11:05:45.893Z,101922.28
2023-04-02T11:08:38.046Z,101934.75
2023-04-02T11:11:14.346Z,101934.00
2023-04-02T11:13:52.298Z,101929.09
2023-04-02T11:16:19.870Z,101930.97
2023-04-02T11:19:15.427Z,101938.97
2023-04-02T11:21:57.213Z,101948.81
2023-04-02T11:24:32.702Z,101947.72
2023-04-02T11:27:15.357Z,101945.22
2023-04-02T11:29:53.828Z,101957.59
2023-04-02T11:32:20.990Z,101953.13
2023-04-02T11:34:56.268Z,101955.88
2023-04-02T11:37:44.748Z,101963.69
2023-04-02T11:40:11.666Z,101961.41
2023-04-02T11:42:40.407Z,101965.84
2023-04-02T11:45:28.708Z,101970.19
2023-04-02T11:48:01.353Z,101975.16
2023-04-02T11:50:40.407Z,101967.94
2023-04-02T11:53:10.217Z,101959.06
2023-04-02T11:55:47.390Z,101967.75
2023-04-02T11:58:35.444Z,101972.44
2023-04-02T12:01:21.310Z,101977.50
2023-04-02T12:04:35.774Z,101988.31
2023-04-02T12:07:26.522Z,101990.69
2023-04-02T12:09:56.082Z,101990.75
2023-04-02T12:12:37.461Z,101995.00
2023-04-02T12:15:32.512Z,101994.59
2023-04-02T12:18:22.721Z,101993.94
2023-04-02T12:20:56.191Z,101999.34
2023-04-02T12:23:31.841Z,102005.16
2023-04-02T12:26:03.359Z,102009.41
2023-04-02T12:28:31.239Z,102009.34
2023-04-02T12:31:09.950Z,102009.09
2023-04-02T12:33:38.546Z,101996.28
2023-04-02T12:36:27.374Z,102007.19
2023-04-02T12:38:56.946Z,102001.69
2023-04-02T12:41:30.058Z,102001.81
2023-04-02T12:43:58.235Z,102007.84
2023-04-02T12:46:25.998Z,102006.63
2023-04-02T12:49:06.605Z,102008.88
2023-04-02T12:51:36.221Z,102018.41
2023-04-02T12:54:03.198Z,102005.63
2023-04-02T12:56:30.224Z,102014.97
2023-04-02T12:58:58.726Z,102011.34
2023-04-02T13:01:29.807Z,102018.69
2023-04-02T13:04:12.183Z,102018.13
2023-04-02T13:06:46.632Z,102017.94
2023-04-02T13:09:40.039Z,102025.88
2023-04-02T13:12:32.500Z,102024.88
2023-04-02T13:15:02.456Z,102033.47
2023-04-02T13:18:03.965Z,102042.41
2023-04-02T13:20:41.688Z,102037.34
2023-04-02T13:23:27.331Z,102041.03
2023-04-02T13:25:55.799Z,102048.75
2023-04-02T13:28:22.652Z,102041.63
2023-04-02T13:30:49.606Z,102044.56
2023-04-02T13:33:17.231Z,102050.34
2023-04-02T13:35:44.392Z,102046.88
2023-04-02T13:38:11.435Z,102056.00
2023-04-02T13:40:38.547Z,102055.34
2023-04-02T13:43:06.570Z,102052.72
2023-04-02T13:45:37.367Z,102055.41
2023-04-02T13:48:05.711Z,102062.13
2023-04-02T13:50:35.039Z,102057.56
2023-04-02T13:53:10.236Z,102045.50
2023-04-02T13:55:41.416Z,102059.31
2023-04-02T13:58:09.779Z,102059.91
2023-04-02T14:00:37.847Z,102069.06
2023-04-02T14:03:11.344Z,102061.47
2023-04-02T14:05:59.797Z,102068.28
2023-04-02T14:08:45.208Z,102058.31
2023-04-02T14:11:46.112Z,102072.13
2023-04-02T14:14:34.036Z,102082.50
2023-04-02T14:17:09.512Z,102075.84
2023-04-02T14:19:53.198Z,102077.72
2023-04-02T14:22:28.741Z,102071.38
2023-04-02T14:25:10.638Z,102086.69
2023-04-02T14:27:48.465Z,102087.34
2023-04-02T14:30:23.334Z,102089.63
2023-04-02T14:33:05.397Z,102090.00
2023-04-02T14:35:37.575Z,102098.69
2023-04-02T14:38:17.397Z,102102.25
2023-04-02T14:40:52.060Z,102097.72
2023-04-02T14:43:31.306Z,102108.84
2023-04-02T14:46:05.979Z,102108.72
2023-04-02T14:48:37.159Z,102105.78
2023-04-02T14:51:30.141Z,102097.22
2023-04-02T14:54:04.133Z,102107.94
2023-04-02T14:56:36.385Z,102116.66
2023-04-02T14:59:27.957Z,102121.19
2023-04-02T15:02:01.432Z,102118.31
2023-04-02T15:04:34.705Z,102119.59
2023-04-02T15:07:07.608Z,102134.09
2023-04-02T15:09:41.885Z,102110.47
2023-04-02T15:12:24.728Z,102129.53
2023-04-02T15:14:58.967Z,102124.78
2023-04-02T15:17:25.628Z,102126.28
2023-04-02T15:20:13.614Z,102126.50
2023-04-02T15:22:58.872Z,102126.00
2023-04-02T15:25:47.964Z,102125.34
2023-04-02T15:28:30.192Z,102125.84
2023-04-02T15:31:00.665Z,102124.47
2023-04-02T15:33:27.304Z,102129.41
2023-04-02T15:36:23.486Z,102143.22
2023-04-02T15:39:00.950Z,102141.41
2023-04-02T15:41:36.010Z,102144.34
2023-04-02T15:44:16.904Z,102155.81
2023-04-02T15:47:14.996Z,102151.38
2023-04-02T15:50:07.063Z,102143.81
2023-04-02T15:52:45.707Z,102155.81
2023-04-02T15:55:45.971Z,102175.75
2023-04-02T15:58:20.596Z,102178.38
2023-04-02T16:01:06.010Z,102175.56
2023-04-02T16:03:59.662Z,102182.84
2023-04-02T16:06:27.836Z,102176.63
2023-04-02T16:09:17.739Z,102189.78
2023-04-02T16:11:44.168Z,102187.03
2023-04-02T16:14:24.483Z,102179.13
2023-04-02T16:16:54.484Z,102198.94
2023-04-02T16:19:30.415Z,102190.31
2023-04-02T16:21:57.280Z,102217.16
2023-04-02T16:24:24.324Z,102220.09
2023-04-02T16:26:59.548Z,102215.75
2023-04-02T16:29:51.156Z,102224.13
2023-04-02T16:32:46.114Z,102218.41
2023-04-02T16:35:50.749Z,102226.91
2023-04-02T16:38:23.732Z,102240.41
2023-04-02T16:41:17.640Z,102238.34
2023-04-02T16:43:53.004Z,102242.66
2023-04-02T16:46:40.841Z,102236.19
2023-04-02T16:49:36.414Z,102249.06
2023-04-02T16:52:26.485Z,102260.78
2023-04-02T16:55:10.106Z,102266.31
2023-04-02T16:57:44.631Z,102274.31
2023-04-02T17:00:27.721Z,102276.44
2023-04-02T17:03:13.624Z,102289.38
2023-04-02T17:05:48.654Z,102296.66
2023-04-02T17:08:22.807Z,102297.25
2023-04-02T17:11:00.499Z,102299.38
2023-04-02T17:13:38.987Z,102298.66
2023-04-02T17:16:11.642Z,102304.94
2023-04-02T17:18:41.607Z,102316.97
2023-04-02T17:21:13.722Z,102319.94
2023-04-02T17:23:55.719Z,102323.78
2023-04-02T17:26:27.830Z,102330.19
2023-04-02T17:28:57.558Z,102326.47
2023-04-02T17:31:33.851Z,102329.59
2023-04-02T17:34:10.598Z,102339.41
2023-04-02T17:36:43.917Z,102338.06
2023-04-02T17:39:35.486Z,102349.19
2023-04-02T17:42:14.201Z,102343.28
2023-04-02T17:44:58.588Z,102350.72
2023-04-02T17:47:40.335Z,102360.91
2023-04-02T17:50:28.698Z,102365.69
2023-04-02T17:52:58.636Z,102373.56
2023-04-02T17:55:40.385Z,102376.63
2023-04-02T17:58:15.617Z,102374.59
2023-04-02T18:01:14.462Z,102379.19
2023-04-02T18:03:52.441Z,102390.41
2023-04-02T18:06:23.463Z,102390.84
2023-04-02T18:09:19.328Z,102397.94
2023-04-02T18:12:07.719Z,102398.25
2023-04-02T18:15:03.184Z,102406.25
2023-04-02T18:17:33.391Z,102411.53
2023-04-02T18:20:29.334Z,102418.50
2023-04-02T18:23:16.910Z,102424.69
2023-04-02T18:25:54.003Z,102419.97
2023-04-02T18:28:20.458Z,102420.38
2023-04-02T18:30:49.574Z,102424.97
2023-04-02T18:33:29.633Z,102433.69
2023-04-02T18:36:18.835Z,102437.34
2023-04-02T18:39:05.826Z,102440.31
2023-04-02T18:42:04.492Z,102443.09
2023-04-02T18:45:03.905Z,102447.66
2023-04-02T18:47:39.615Z,102447.19
2023-04-02T18:50:20.684Z,102450.69
2023-04-02T18:52:48.344Z,102464.44
2023-04-02T18:55:20.799Z,102468.06
2023-04-02T18:57:51.362Z,102468.94
2023-04-02T19:00:29.506Z,102483.84
2023-04-02T19:03:02.889Z,102477.63
2023-04-02T19:05:35.912Z,102477.47
2023-04-02T19:08:11.119Z,102478.75
2023-04-02T19:10:39.384Z,102485.84
2023-04-02T19:13:15.472Z,102488.75
2023-04-02T19:15:41.871Z,102494.75
2023-04-02T19:18:23.351Z,102495.03
2023-04-02T19:21:00.243Z,102502.81
2023-04-02T19:23:37.464Z,102511.06
2023-04-02T19:26:08.887Z,102503.94
2023-04-02T19:29:00.530Z,102513.69
2023-04-02T19:31:41.230Z,102514.09
2023-04-02T19:34:25.334Z,102513.78
2023-04-02T19:37:02.645Z,102519.34
2023-04-02T19:39:46.448Z,102527.44
2023-04-02T19:42:47.389Z,102529.47
2023-04-02T19:45:49.304Z,102534.19
2023-04-02T19:48:20.224Z,102536.03
2023-04-02T19:50:47.803Z,102542.31
2023-04-02T19:53:14.946Z,102536.81
2023-04-02T19:55:42.580Z,102535.28
2023-04-02T19:58:29.607Z,102538.22
2023-04-02T20:00:57.249Z,102545.38
2023-04-02T20:03:24.432Z,102540.28
2023-04-02T20:05:52.231Z,102555.31
2023-04-02T20:08:19.129Z,102546.41
2023-04-02T20:10:46.287Z,102553.75
2023-04-02T20:13:13.440Z,102550.06
2023-04-02T20:15:40.965Z,102554.91
2023-04-02T20:18:10.263Z,102554.41
2023-04-02T20:20:38.120Z,102560.16
2023-04-02T20:23:05.164Z,102561.44
2023-04-02T20:25:31.899Z,102570.41
2023-04-02T20:27:58.356Z,102577.59
2023-04-02T20:30:24.817Z,102573.53
2023-04-02T20:32:51.458Z,102576.75
2023-04-02T20:35:17.990Z,102585.56
2023-04-02T20:37:45.622Z,102583.63
2023-04-02T20:40:12.124Z,102588.44
2023-04-02T20:42:38.576Z,102593.09
2023-04-02T20:45:06.195Z,102588.50
2023-04-02T20:47:32.706Z,102593.00
2023-04-02T20:49:59.248Z,102590.00
2023-04-02T20:52:27.805Z,102603.06
2023-04-02T20:54:54.288Z,102603.59
2023-04-02T20:57:21.989Z,102610.97
2023-04-02T20:59:48.687Z,102610.63
2023-04-02T21:02:15.399Z,102616.19
2023-04-02T21:04:41.880Z,102616.91
2023-04-02T21:07:08.351Z,102624.81
2023-04-02T21:09:34.804Z,102633.03
2023-04-02T21:12:01.292Z,102629.31
2023-04-02T21:14:27.740Z,102633.06
2023-04-02T21:16:54.231Z,102633.81
2023-04-02T21:19:20.681Z,102644.38
2023-04-02T21:21:47.119Z,102647.41
2023-04-02T21:24:14.076Z,102645.13
2023-04-02T21:26:41.422Z,102651.91
2023-04-02T21:29:08.637Z,102649.59
2023-04-02T21:31:38.222Z,102647.66
2023-04-02T21:34:05.963Z,102653.22
2023-04-02T21:36:36.066Z,102660.53
2023-04-02T21:39:06.514Z,102663.59
2023-04-02T21:41:38.984Z,102664.13
2023-04-02T21:44:07.250Z,102668.06
2023-04-02T21:46:36.525Z,102660.56
2023-04-02T21:49:04.132Z,102672.00
2023-04-02T21:51:32.866Z,102671.09
2023-04-02T21:54:00.367Z,102667.38
2023-04-02T21:56:29.541Z,102671.50
2023-04-02T21:58:57.134Z,102677.94
2023-04-02T22:01:28.928Z,102682.41
2023-04-02T22:03:57.291Z,102687.56
2023-04-02T22:06:25.798Z,102690.81
2023-04-02T22:08:58.266Z,102698.88
2023-04-02T22:11:31.922Z,102686.72
2023-04-02T22:13:59.290Z,102687.25
2023-04-02T22:16:29.311Z,102687.06
2023-04-02T22:18:58.432Z,102689.38
2023-04-02T22:21:25.860Z,102693.34
2023-04-02T22:23:53.590Z,102692.09
2023-04-02T22:26:22.789Z,102685.13
2023-04-02T22:28:52.302Z,102690.66
2023-04-02T22:31:25.124Z,102696.19
2023-04-02T22:33:53.778Z,102692.25
2023-04-02T22:36:22.238Z,102688.69
2023-04-02T22:38:49.654Z,102685.84
2023-04-02T22:41:22.458Z,102687.09
2023-04-02T22:43:49.398Z,102691.03
2023-04-02T22:46:17.438Z,102690.84
2023-04-02T22:48:45.225Z,102694.59
2023-04-02T22:51:13.658Z,102697.81
2023-04-02T22:53:40.746Z,102693.16
2023-04-02T22:56:10.780Z,102700.66
2023-04-02T22:58:38.147Z,102703.53
2023-04-02T23:01:06.654Z,102708.19
2023-04-02T23:03:33.338Z,102720.50
2023-04-02T23:06:01.881Z,102723.53
2023-04-02T23:08:28.580Z,102718.00
2023-04-02T23:11:04.400Z,102733.00
2023-04-02T23:13:31.246Z,102731.91
2023-04-02T23:15:58.027Z,102734.06
2023-04-02T23:18:24.717Z,102729.75
2023-04-02T23:20:51.335Z,102736.19
2023-04-02T23:23:18.004Z,102735.31
2023-04-02T23:25:44.687Z,102739.22
2023-04-02T23:28:13.413Z,102740.66
2023-04-02T23:30:43.995Z,102740.09
2023-04-02T23:33:10.660Z,102749.91
2023-04-02T23:35:37.371Z,102740.44
2023-04-02T23:38:04.056Z,102746.69
2023-04-02T23:40:30.757Z,102748.13
2023-04-02T23:42:57.366Z,102747.75
2023-04-02T23:45:24.034Z,102745.78
2023-04-02T23:47:50.726Z,102748.81
2023-04-02T23:50:17.489Z,102744.34
2023-04-02T23:52:44.106Z,102748.25
2023-04-02T23:55:12.112Z,102748.78
2023-04-02T23:57:38.760Z,102755.94
